LDZD/ZAD METAR and TAF weather

Enter ICAO airport designator
Station Type Date Time Source
LDZD METAR 2020/02/19 14:30 UTC NOAA

LDZD 191430Z 27009KT 240V300 9999 SCT030 13/07 Q1016 NOSIG


Station Type Date Time Source
LDZD Decoded METAR 2020/02/19 14:30 UTC NOAA

Zadar / Zemunik, Croatia (LDZD) 44-06N 015-21E
Feb 19, 2020 - 09:30 AM EST / 2020.02.19 1430 UTC
Wind: from the W (270 degrees) at 10 MPH (9 KT) (direction variable):0
Visibility: greater than 7 mile(s):0
Sky conditions: partly cloudy
Temperature: 55 F (13 C)
Dew Point: 44 F (7 C)
Relative Humidity: 66%
Pressure (altimeter): 30.00 in. Hg (1016 hPa)
ob: LDZD 191430Z 27009KT 240V300 9999 SCT030 13/07 Q1016 NOSIG
cycle: 14

Station Type Date Time Source
LDZD TAF 2020/02/19 12:30 UTC NOAA

TAF LDZD 191125Z 1912/2012 08006KT 9999 BKN060 TX14/1913Z TN04/2005Z
TEMPO 1912/1917 25008KT PROB40
TEMPO 1917/1923 32015KT RA BKN030
BECMG 1920/1922 04010KT PROB30
TEMPO 2000/2006 04015G25KT

Example: see airport list